sensor_id;sensor_type;location;lat;lon;timestamp;temperature;humidity
15257;DHT22;7731;50.720;6.912;2024-01-15T00:01:23;2.20;99.90
15257;DHT22;7731;50.720;6.912;2024-01-15T00:03:56;2.20;99.90
15257;DHT22;7731;50.720;6.912;2024-01-15T00:06:27;2.30;99.90
15257;DHT22;7731;50.720;6.912;2024-01-15T00:08:59;2.30;99.90
15257;DHT22;7731;50.720;6.912;2024-01-15T00:11:35;2.30;99.90
15257;DHT22;7731;50.720;6.912;2024-01-15T00:14:09;2.40;99.90
15257;DHT22;7731;50.720;6.912;2024-01-15T00:16:41;2.40;99.90
15257;DHT22;7731;50.720;6.912;2024-01-15T00:19:15;2.30;99.90
15257;DHT22;7731;50.720;6.912;2024-01-15T00:21:49;2.20;99.90
15257;DHT22;7731;50.720;6.912;2024-01-15T00:24:20;2.00;99.90
15257;DHT22;7731;50.720;6.912;2024-01-15T00:26:53;2.00;99.90
15257;DHT22;7731;50.720;6.912;2024-01-15T00:29:26;1.70;99.90
15257;DHT22;7731;50.720;6.912;2024-01-15T00:31:59;1.80;99.90
15257;DHT22;7731;50.720;6.912;2024-01-15T00:34:30;1.80;99.90
15257;DHT22;7731;50.720;6.912;2024-01-15T00:37:00;1.60;99.90
15257;DHT22;7731;50.720;6.912;2024-01-15T00:39:30;1.80;99.90
15257;DHT22;7731;50.720;6.912;2024-01-15T00:42:04;1.80;99.90
15257;DHT22;7731;50.720;6.912;2024-01-15T00:44:42;1.70;99.90
15257;DHT22;7731;50.720;6.912;2024-01-15T00:47:15;1.60;99.90
15257;DHT22;7731;50.720;6.912;2024-01-15T00:49:47;1.50;99.90
15257;DHT22;7731;50.720;6.912;2024-01-15T00:52:18;1.50;99.90
15257;DHT22;7731;50.720;6.912;2024-01-15T00:54:46;1.40;99.90
15257;DHT22;7731;50.720;6.912;2024-01-15T00:57:18;1.40;99.90
15257;DHT22;7731;50.720;6.912;2024-01-15T00:59:51;1.50;99.90
15257;DHT22;7731;50.720;6.912;2024-01-15T01:02:22;1.50;99.90
15257;DHT22;7731;50.720;6.912;2024-01-15T01:04:52;1.70;99.90
15257;DHT22;7731;50.720;6.912;2024-01-15T01:07:22;1.70;99.90
15257;DHT22;7731;50.720;6.912;2024-01-15T01:09:53;1.70;99.90
15257;DHT22;7731;50.720;6.912;2024-01-15T01:12:26;1.80;99.90
15257;DHT22;7731;50.720;6.912;2024-01-15T01:14:56;1.70;99.90
15257;DHT22;7731;50.720;6.912;2024-01-15T01:17:33;1.70;99.90
15257;DHT22;7731;50.720;6.912;2024-01-15T01:20:05;1.70;99.90
15257;DHT22;7731;50.720;6.912;2024-01-15T01:22:39;1.70;99.90
15257;DHT22;7731;50.720;6.912;2024-01-15T01:25:16;1.80;99.90
15257;DHT22;7731;50.720;6.912;2024-01-15T01:27:51;1.80;99.90
15257;DHT22;7731;50.720;6.912;2024-01-15T01:30:22;1.80;99.90
15257;DHT22;7731;50.720;6.912;2024-01-15T01:32:52;1.80;99.90
15257;DHT22;7731;50.720;6.912;2024-01-15T01:35:23;1.90;99.90
15257;DHT22;7731;50.720;6.912;2024-01-15T01:37:53;1.90;99.90
15257;DHT22;7731;50.720;6.912;2024-01-15T01:40:26;1.80;99.90
15257;DHT22;7731;50.720;6.912;2024-01-15T01:43:09;1.60;99.90
15257;DHT22;7731;50.720;6.912;2024-01-15T01:45:44;1.70;99.90
15257;DHT22;7731;50.720;6.912;2024-01-15T01:48:15;1.70;99.90
15257;DHT22;7731;50.720;6.912;2024-01-15T01:50:45;1.80;99.90
15257;DHT22;7731;50.720;6.912;2024-01-15T01:53:19;1.90;99.90
15257;DHT22;7731;50.720;6.912;2024-01-15T01:55:50;1.90;99.90
15257;DHT22;7731;50.720;6.912;2024-01-15T01:58:26;1.80;99.90
15257;DHT22;7731;50.720;6.912;2024-01-15T02:00:57;1.70;99.90
15257;DHT22;7731;50.720;6.912;2024-01-15T02:03:30;1.60;99.90
15257;DHT22;7731;50.720;6.912;2024-01-15T02:06:01;1.70;99.90
15257;DHT22;7731;50.720;6.912;2024-01-15T02:08:31;1.60;99.90
15257;DHT22;7731;50.720;6.912;2024-01-15T02:11:02;1.60;99.90
15257;DHT22;7731;50.720;6.912;2024-01-15T02:13:35;1.60;99.90
15257;DHT22;7731;50.720;6.912;2024-01-15T02:16:10;1.50;99.90
15257;DHT22;7731;50.720;6.912;2024-01-15T02:18:41;1.50;99.90
15257;DHT22;7731;50.720;6.912;2024-01-15T02:21:15;1.50;99.90
15257;DHT22;7731;50.720;6.912;2024-01-15T02:23:50;1.50;99.90
15257;DHT22;7731;50.720;6.912;2024-01-15T02:26:21;1.50;99.90
15257;DHT22;7731;50.720;6.912;2024-01-15T02:29:07;1.60;99.90
15257;DHT22;7731;50.720;6.912;2024-01-15T02:31:38;1.60;99.90
15257;DHT22;7731;50.720;6.912;2024-01-15T02:34:09;1.60;99.90
15257;DHT22;7731;50.720;6.912;2024-01-15T02:36:39;1.70;99.90
15257;DHT22;7731;50.720;6.912;2024-01-15T02:39:12;1.70;99.90
15257;DHT22;7731;50.720;6.912;2024-01-15T02:41:43;1.70;99.90
15257;DHT22;7731;50.720;6.912;2024-01-15T02:44:15;1.60;99.90
15257;DHT22;7731;50.720;6.912;2024-01-15T02:46:45;1.50;99.90
15257;DHT22;7731;50.720;6.912;2024-01-15T02:49:16;1.60;99.90
15257;DHT22;7731;50.720;6.912;2024-01-15T02:51:46;1.60;99.90
15257;DHT22;7731;50.720;6.912;2024-01-15T02:54:31;1.70;99.90
15257;DHT22;7731;50.720;6.912;2024-01-15T02:57:05;1.60;99.90
15257;DHT22;7731;50.720;6.912;2024-01-15T02:59:35;1.60;99.90
15257;DHT22;7731;50.720;6.912;2024-01-15T03:02:06;1.70;99.90
15257;DHT22;7731;50.720;6.912;2024-01-15T03:04:36;1.70;99.90
15257;DHT22;7731;50.720;6.912;2024-01-15T03:07:06;1.70;99.90
15257;DHT22;7731;50.720;6.912;2024-01-15T03:09:41;1.70;99.90
15257;DHT22;7731;50.720;6.912;2024-01-15T03:12:12;1.70;99.90
15257;DHT22;7731;50.720;6.912;2024-01-15T03:14:45;1.70;99.90
15257;DHT22;7731;50.720;6.912;2024-01-15T03:17:18;1.70;99.90
15257;DHT22;7731;50.720;6.912;2024-01-15T03:19:51;1.80;99.90
15257;DHT22;7731;50.720;6.912;2024-01-15T03:22:22;1.70;99.90
15257;DHT22;7731;50.720;6.912;2024-01-15T03:25:00;1.50;99.90
15257;DHT22;7731;50.720;6.912;2024-01-15T03:27:30;1.50;99.90
15257;DHT22;7731;50.720;6.912;2024-01-15T03:30:07;1.50;99.90
15257;DHT22;7731;50.720;6.912;2024-01-15T03:32:38;1.50;99.90
15257;DHT22;7731;50.720;6.912;2024-01-15T03:35:09;1.50;99.90
15257;DHT22;7731;50.720;6.912;2024-01-15T03:37:39;1.60;99.90
15257;DHT22;7731;50.720;6.912;2024-01-15T03:40:21;1.60;99.90
15257;DHT22;7731;50.720;6.912;2024-01-15T03:42:51;1.70;99.90
15257;DHT22;7731;50.720;6.912;2024-01-15T03:45:21;1.60;99.90
15257;DHT22;7731;50.720;6.912;2024-01-15T03:47:52;1.60;99.90
15257;DHT22;7731;50.720;6.912;2024-01-15T03:50:25;1.80;99.90
15257;DHT22;7731;50.720;6.912;2024-01-15T03:53:01;1.90;99.90
15257;DHT22;7731;50.720;6.912;2024-01-15T03:55:37;1.90;99.90
15257;DHT22;7731;50.720;6.912;2024-01-15T03:58:14;1.90;99.90
15257;DHT22;7731;50.720;6.912;2024-01-15T04:00:44;2.00;99.90
15257;DHT22;7731;50.720;6.912;2024-01-15T04:03:18;2.00;99.90
15257;DHT22;7731;50.720;6.912;2024-01-15T04:05:48;2.10;99.90
15257;DHT22;7731;50.720;6.912;2024-01-15T04:08:19;2.00;99.90
15257;DHT22;7731;50.720;6.912;2024-01-15T04:10:51;1.90;99.90
15257;DHT22;7731;50.720;6.912;2024-01-15T04:13:22;1.90;99.90
15257;DHT22;7731;50.720;6.912;2024-01-15T04:15:53;1.90;99.90
15257;DHT22;7731;50.720;6.912;2024-01-15T04:18:26;1.90;99.90
15257;DHT22;7731;50.720;6.912;2024-01-15T04:21:11;2.10;99.90
15257;DHT22;7731;50.720;6.912;2024-01-15T04:23:42;2.10;99.90
15257;DHT22;7731;50.720;6.912;2024-01-15T04:26:17;2.20;99.90
15257;DHT22;7731;50.720;6.912;2024-01-15T04:28:47;2.10;99.90
15257;DHT22;7731;50.720;6.912;2024-01-15T04:31:24;2.20;99.90
15257;DHT22;7731;50.720;6.912;2024-01-15T04:33:55;2.00;99.90
15257;DHT22;7731;50.720;6.912;2024-01-15T04:36:25;2.00;99.90
15257;DHT22;7731;50.720;6.912;2024-01-15T04:38:56;1.90;99.90
15257;DHT22;7731;50.720;6.912;2024-01-15T04:41:29;2.00;99.90
15257;DHT22;7731;50.720;6.912;2024-01-15T04:43:59;1.90;99.90
15257;DHT22;7731;50.720;6.912;2024-01-15T04:46:30;1.90;99.90
15257;DHT22;7731;50.720;6.912;2024-01-15T04:49:02;2.00;99.90
15257;DHT22;7731;50.720;6.912;2024-01-15T04:51:34;1.90;99.90
15257;DHT22;7731;50.720;6.912;2024-01-15T04:54:07;2.00;99.90
15257;DHT22;7731;50.720;6.912;2024-01-15T04:56:44;2.00;99.90
15257;DHT22;7731;50.720;6.912;2024-01-15T04:59:14;2.20;99.90
15257;DHT22;7731;50.720;6.912;2024-01-15T05:01:45;2.30;99.90
15257;DHT22;7731;50.720;6.912;2024-01-15T05:04:16;2.20;99.90
15257;DHT22;7731;50.720;6.912;2024-01-15T05:06:46;2.00;99.90
15257;DHT22;7731;50.720;6.912;2024-01-15T05:09:16;2.00;99.90
15257;DHT22;7731;50.720;6.912;2024-01-15T05:11:50;2.20;99.90
15257;DHT22;7731;50.720;6.912;2024-01-15T05:14:20;2.10;99.90
15257;DHT22;7731;50.720;6.912;2024-01-15T05:16:50;2.20;99.90
15257;DHT22;7731;50.720;6.912;2024-01-15T05:19:23;2.20;99.90
15257;DHT22;7731;50.720;6.912;2024-01-15T05:21:53;2.30;99.90
15257;DHT22;7731;50.720;6.912;2024-01-15T05:24:26;2.20;99.90
15257;DHT22;7731;50.720;6.912;2024-01-15T05:26:59;2.20;99.90
15257;DHT22;7731;50.720;6.912;2024-01-15T05:29:30;2.20;99.90
15257;DHT22;7731;50.720;6.912;2024-01-15T05:32:03;2.10;99.90
15257;DHT22;7731;50.720;6.912;2024-01-15T05:34:33;2.00;99.90
15257;DHT22;7731;50.720;6.912;2024-01-15T05:37:04;2.00;99.90
15257;DHT22;7731;50.720;6.912;2024-01-15T05:39:37;2.00;99.90
15257;DHT22;7731;50.720;6.912;2024-01-15T05:42:10;2.00;99.90
15257;DHT22;7731;50.720;6.912;2024-01-15T05:44:41;2.00;99.90
15257;DHT22;7731;50.720;6.912;2024-01-15T05:47:11;2.00;99.90
15257;DHT22;7731;50.720;6.912;2024-01-15T05:49:41;2.00;99.90
15257;DHT22;7731;50.720;6.912;2024-01-15T05:52:14;1.90;99.90
15257;DHT22;7731;50.720;6.912;2024-01-15T05:54:47;1.90;99.90
15257;DHT22;7731;50.720;6.912;2024-01-15T05:57:20;1.90;99.90
15257;DHT22;7731;50.720;6.912;2024-01-15T05:59:51;1.80;99.90
15257;DHT22;7731;50.720;6.912;2024-01-15T06:02:24;1.80;99.90
15257;DHT22;7731;50.720;6.912;2024-01-15T06:04:57;1.80;99.90
15257;DHT22;7731;50.720;6.912;2024-01-15T06:07:35;1.80;99.90
15257;DHT22;7731;50.720;6.912;2024-01-15T06:10:06;1.80;99.90
15257;DHT22;7731;50.720;6.912;2024-01-15T06:12:40;1.80;99.90
15257;DHT22;7731;50.720;6.912;2024-01-15T06:15:12;1.90;99.90
15257;DHT22;7731;50.720;6.912;2024-01-15T06:17:43;1.80;99.90
15257;DHT22;7731;50.720;6.912;2024-01-15T06:20:14;1.80;99.90
15257;DHT22;7731;50.720;6.912;2024-01-15T06:22:44;1.90;99.90
15257;DHT22;7731;50.720;6.912;2024-01-15T06:25:15;1.80;99.90
15257;DHT22;7731;50.720;6.912;2024-01-15T06:27:47;1.80;99.90
15257;DHT22;7731;50.720;6.912;2024-01-15T06:30:18;1.80;99.90
15257;DHT22;7731;50.720;6.912;2024-01-15T06:32:49;1.90;99.90
15257;DHT22;7731;50.720;6.912;2024-01-15T06:35:20;1.90;99.90
15257;DHT22;7731;50.720;6.912;2024-01-15T06:37:50;1.90;99.90
15257;DHT22;7731;50.720;6.912;2024-01-15T06:40:20;1.90;99.90
15257;DHT22;7731;50.720;6.912;2024-01-15T06:42:56;1.90;99.90
15257;DHT22;7731;50.720;6.912;2024-01-15T06:45:30;2.00;99.90
15257;DHT22;7731;50.720;6.912;2024-01-15T06:48:00;1.80;99.90
15257;DHT22;7731;50.720;6.912;2024-01-15T06:50:33;1.70;99.90
15257;DHT22;7731;50.720;6.912;2024-01-15T06:53:06;1.70;99.90
15257;DHT22;7731;50.720;6.912;2024-01-15T06:55:37;1.70;99.90
15257;DHT22;7731;50.720;6.912;2024-01-15T06:58:12;1.60;99.90
15257;DHT22;7731;50.720;6.912;2024-01-15T07:00:44;1.70;99.90
15257;DHT22;7731;50.720;6.912;2024-01-15T07:03:23;1.80;99.90
15257;DHT22;7731;50.720;6.912;2024-01-15T07:05:54;1.80;99.90
15257;DHT22;7731;50.720;6.912;2024-01-15T07:08:28;1.80;99.90
15257;DHT22;7731;50.720;6.912;2024-01-15T07:10:59;1.80;99.90
15257;DHT22;7731;50.720;6.912;2024-01-15T07:13:35;1.70;99.90
15257;DHT22;7731;50.720;6.912;2024-01-15T07:16:11;1.70;99.90
15257;DHT22;7731;50.720;6.912;2024-01-15T07:19:03;1.80;99.90
15257;DHT22;7731;50.720;6.912;2024-01-15T07:21:34;1.70;99.90
15257;DHT22;7731;50.720;6.912;2024-01-15T07:24:09;1.70;99.90
15257;DHT22;7731;50.720;6.912;2024-01-15T07:26:39;1.70;99.90
15257;DHT22;7731;50.720;6.912;2024-01-15T07:29:12;1.80;99.90
15257;DHT22;7731;50.720;6.912;2024-01-15T07:31:48;1.80;99.90
15257;DHT22;7731;50.720;6.912;2024-01-15T07:34:19;1.80;99.90
15257;DHT22;7731;50.720;6.912;2024-01-15T07:36:53;1.90;99.90
15257;DHT22;7731;50.720;6.912;2024-01-15T07:39:23;1.80;99.90
15257;DHT22;7731;50.720;6.912;2024-01-15T07:41:55;1.80;99.90
15257;DHT22;7731;50.720;6.912;2024-01-15T07:44:28;1.90;99.90
15257;DHT22;7731;50.720;6.912;2024-01-15T07:46:59;1.90;99.90
15257;DHT22;7731;50.720;6.912;2024-01-15T07:49:33;2.00;99.90
15257;DHT22;7731;50.720;6.912;2024-01-15T07:52:07;2.00;99.90
15257;DHT22;7731;50.720;6.912;2024-01-15T07:54:40;2.00;99.90
15257;DHT22;7731;50.720;6.912;2024-01-15T07:57:20;2.00;99.90
15257;DHT22;7731;50.720;6.912;2024-01-15T07:59:55;2.00;99.90
15257;DHT22;7731;50.720;6.912;2024-01-15T08:02:26;2.00;99.90
15257;DHT22;7731;50.720;6.912;2024-01-15T08:04:58;2.10;99.90
15257;DHT22;7731;50.720;6.912;2024-01-15T08:07:28;2.20;99.90
15257;DHT22;7731;50.720;6.912;2024-01-15T08:09:59;2.20;99.90
15257;DHT22;7731;50.720;6.912;2024-01-15T08:12:29;2.20;99.90
15257;DHT22;7731;50.720;6.912;2024-01-15T08:15:03;2.20;99.90
15257;DHT22;7731;50.720;6.912;2024-01-15T08:17:34;2.20;99.90
15257;DHT22;7731;50.720;6.912;2024-01-15T08:20:05;2.10;99.90
15257;DHT22;7731;50.720;6.912;2024-01-15T08:22:38;2.10;99.90
15257;DHT22;7731;50.720;6.912;2024-01-15T08:25:09;2.10;99.90
15257;DHT22;7731;50.720;6.912;2024-01-15T08:27:40;2.10;99.90
15257;DHT22;7731;50.720;6.912;2024-01-15T08:30:14;2.20;99.90
15257;DHT22;7731;50.720;6.912;2024-01-15T08:32:45;2.20;99.90
15257;DHT22;7731;50.720;6.912;2024-01-15T08:35:16;2.30;99.90
15257;DHT22;7731;50.720;6.912;2024-01-15T08:37:53;2.50;99.90
15257;DHT22;7731;50.720;6.912;2024-01-15T08:40:25;2.70;99.90
15257;DHT22;7731;50.720;6.912;2024-01-15T08:42:56;3.00;99.90
15257;DHT22;7731;50.720;6.912;2024-01-15T08:45:29;3.00;99.90
15257;DHT22;7731;50.720;6.912;2024-01-15T08:48:06;3.00;99.90
15257;DHT22;7731;50.720;6.912;2024-01-15T08:50:40;2.90;99.90
15257;DHT22;7731;50.720;6.912;2024-01-15T08:53:10;2.90;99.90
15257;DHT22;7731;50.720;6.912;2024-01-15T08:55:41;3.00;99.90
15257;DHT22;7731;50.720;6.912;2024-01-15T08:58:11;3.00;99.90
15257;DHT22;7731;50.720;6.912;2024-01-15T09:00:54;2.90;99.90
15257;DHT22;7731;50.720;6.912;2024-01-15T09:03:27;2.90;99.90
15257;DHT22;7731;50.720;6.912;2024-01-15T09:05:57;2.90;99.90
15257;DHT22;7731;50.720;6.912;2024-01-15T09:08:30;3.00;99.90
15257;DHT22;7731;50.720;6.912;2024-01-15T09:11:00;3.10;99.90
15257;DHT22;7731;50.720;6.912;2024-01-15T09:13:32;3.10;99.90
15257;DHT22;7731;50.720;6.912;2024-01-15T09:16:04;3.10;99.90
15257;DHT22;7731;50.720;6.912;2024-01-15T09:18:37;3.10;99.90
15257;DHT22;7731;50.720;6.912;2024-01-15T09:21:11;3.00;99.90
15257;DHT22;7731;50.720;6.912;2024-01-15T09:23:41;2.90;99.90
15257;DHT22;7731;50.720;6.912;2024-01-15T09:26:11;2.70;99.90
15257;DHT22;7731;50.720;6.912;2024-01-15T09:28:44;2.70;99.90
15257;DHT22;7731;50.720;6.912;2024-01-15T09:31:17;2.70;99.90
15257;DHT22;7731;50.720;6.912;2024-01-15T09:33:52;2.70;99.90
15257;DHT22;7731;50.720;6.912;2024-01-15T09:36:23;2.60;99.90
15257;DHT22;7731;50.720;6.912;2024-01-15T09:38:54;2.60;99.90
15257;DHT22;7731;50.720;6.912;2024-01-15T09:41:24;2.50;99.90
15257;DHT22;7731;50.720;6.912;2024-01-15T09:43:55;2.30;99.90
15257;DHT22;7731;50.720;6.912;2024-01-15T09:46:31;2.20;99.90
15257;DHT22;7731;50.720;6.912;2024-01-15T09:49:05;2.20;99.90
15257;DHT22;7731;50.720;6.912;2024-01-15T09:51:39;2.20;99.90
15257;DHT22;7731;50.720;6.912;2024-01-15T09:54:15;2.00;99.90
15257;DHT22;7731;50.720;6.912;2024-01-15T09:56:48;1.90;99.90
15257;DHT22;7731;50.720;6.912;2024-01-15T09:59:19;1.90;99.90
15257;DHT22;7731;50.720;6.912;2024-01-15T10:01:53;1.80;99.90
15257;DHT22;7731;50.720;6.912;2024-01-15T10:04:25;1.90;99.90
15257;DHT22;7731;50.720;6.912;2024-01-15T10:06:56;1.80;99.90
15257;DHT22;7731;50.720;6.912;2024-01-15T10:09:39;1.90;99.90
15257;DHT22;7731;50.720;6.912;2024-01-15T10:12:10;2.00;99.90
15257;DHT22;7731;50.720;6.912;2024-01-15T10:14:44;2.00;99.90
15257;DHT22;7731;50.720;6.912;2024-01-15T10:17:19;2.00;99.90
15257;DHT22;7731;50.720;6.912;2024-01-15T10:19:49;2.10;99.90
15257;DHT22;7731;50.720;6.912;2024-01-15T10:22:19;2.00;99.90
15257;DHT22;7731;50.720;6.912;2024-01-15T10:24:51;1.90;99.90
15257;DHT22;7731;50.720;6.912;2024-01-15T10:27:21;1.80;99.90
15257;DHT22;7731;50.720;6.912;2024-01-15T10:29:52;1.70;99.90
15257;DHT22;7731;50.720;6.912;2024-01-15T10:32:25;1.80;99.90
15257;DHT22;7731;50.720;6.912;2024-01-15T10:35:05;1.90;99.90
15257;DHT22;7731;50.720;6.912;2024-01-15T10:37:37;2.00;99.90
15257;DHT22;7731;50.720;6.912;2024-01-15T10:40:57;1.90;99.90
15257;DHT22;7731;50.720;6.912;2024-01-15T10:44:31;2.00;99.90
15257;DHT22;7731;50.720;6.912;2024-01-15T10:48:03;2.10;99.90
15257;DHT22;7731;50.720;6.912;2024-01-15T10:51:34;2.10;99.90
15257;DHT22;7731;50.720;6.912;2024-01-15T10:55:04;2.20;99.90
15257;DHT22;7731;50.720;6.912;2024-01-15T10:58:34;2.20;99.90
15257;DHT22;7731;50.720;6.912;2024-01-15T11:02:04;2.00;99.90
15257;DHT22;7731;50.720;6.912;2024-01-15T11:05:44;1.90;99.90
15257;DHT22;7731;50.720;6.912;2024-01-15T11:09:14;1.90;99.90
15257;DHT22;7731;50.720;6.912;2024-01-15T11:12:58;1.90;99.90
15257;DHT22;7731;50.720;6.912;2024-01-15T11:16:53;1.80;99.90
15257;DHT22;7731;50.720;6.912;2024-01-15T11:20:33;1.90;99.90
15257;DHT22;7731;50.720;6.912;2024-01-15T11:24:02;2.10;99.90
15257;DHT22;7731;50.720;6.912;2024-01-15T11:27:40;2.10;99.90
15257;DHT22;7731;50.720;6.912;2024-01-15T11:31:17;1.80;99.90
15257;DHT22;7731;50.720;6.912;2024-01-15T11:34:56;1.90;99.90
15257;DHT22;7731;50.720;6.912;2024-01-15T11:38:27;1.70;99.90
15257;DHT22;7731;50.720;6.912;2024-01-15T11:42:20;1.70;99.90
15257;DHT22;7731;50.720;6.912;2024-01-15T11:45:52;1.80;99.90
15257;DHT22;7731;50.720;6.912;2024-01-15T11:49:04;2.00;99.90
15257;DHT22;7731;50.720;6.912;2024-01-15T11:52:38;1.90;99.90
15257;DHT22;7731;50.720;6.912;2024-01-15T11:56:15;2.20;99.90
15257;DHT22;7731;50.720;6.912;2024-01-15T11:59:48;2.40;99.90
15257;DHT22;7731;50.720;6.912;2024-01-15T12:03:23;2.40;99.90
15257;DHT22;7731;50.720;6.912;2024-01-15T12:07:03;2.50;99.90
15257;DHT22;7731;50.720;6.912;2024-01-15T12:10:39;2.70;99.90
15257;DHT22;7731;50.720;6.912;2024-01-15T12:14:15;2.60;99.90
15257;DHT22;7731;50.720;6.912;2024-01-15T12:17:45;2.60;99.90
15257;DHT22;7731;50.720;6.912;2024-01-15T12:20:35;2.60;99.90
15257;DHT22;7731;50.720;6.912;2024-01-15T12:23:26;2.50;99.90
15257;DHT22;7731;50.720;6.912;2024-01-15T12:26:19;2.50;99.90
15257;DHT22;7731;50.720;6.912;2024-01-15T12:28:54;2.60;99.90
15257;DHT22;7731;50.720;6.912;2024-01-15T12:31:25;2.60;99.90
15257;DHT22;7731;50.720;6.912;2024-01-15T12:34:01;2.60;99.90
15257;DHT22;7731;50.720;6.912;2024-01-15T12:36:31;2.80;99.90
15257;DHT22;7731;50.720;6.912;2024-01-15T12:39:04;2.80;99.90
15257;DHT22;7731;50.720;6.912;2024-01-15T12:41:35;2.90;99.90
15257;DHT22;7731;50.720;6.912;2024-01-15T12:44:06;2.90;99.90
15257;DHT22;7731;50.720;6.912;2024-01-15T12:46:41;3.20;99.90
15257;DHT22;7731;50.720;6.912;2024-01-15T12:49:13;3.30;99.90
15257;DHT22;7731;50.720;6.912;2024-01-15T12:51:43;3.40;99.90
15257;DHT22;7731;50.720;6.912;2024-01-15T12:54:25;3.60;99.90
15257;DHT22;7731;50.720;6.912;2024-01-15T12:56:56;3.50;99.90
15257;DHT22;7731;50.720;6.912;2024-01-15T12:59:26;3.40;99.90
15257;DHT22;7731;50.720;6.912;2024-01-15T13:01:56;3.20;99.90
15257;DHT22;7731;50.720;6.912;2024-01-15T13:04:27;3.00;99.90
15257;DHT22;7731;50.720;6.912;2024-01-15T13:07:00;3.10;99.90
15257;DHT22;7731;50.720;6.912;2024-01-15T13:09:34;3.20;99.90
15257;DHT22;7731;50.720;6.912;2024-01-15T13:12:06;3.20;99.90
15257;DHT22;7731;50.720;6.912;2024-01-15T13:14:39;3.00;99.90
15257;DHT22;7731;50.720;6.912;2024-01-15T13:17:10;2.60;99.90
15257;DHT22;7731;50.720;6.912;2024-01-15T13:19:41;2.40;99.90
15257;DHT22;7731;50.720;6.912;2024-01-15T13:22:12;2.40;99.90
15257;DHT22;7731;50.720;6.912;2024-01-15T13:24:46;2.30;99.90
15257;DHT22;7731;50.720;6.912;2024-01-15T13:27:16;2.20;99.90
15257;DHT22;7731;50.720;6.912;2024-01-15T13:29:47;2.20;99.90
15257;DHT22;7731;50.720;6.912;2024-01-15T13:32:22;2.20;99.90
15257;DHT22;7731;50.720;6.912;2024-01-15T13:34:56;2.40;99.90
15257;DHT22;7731;50.720;6.912;2024-01-15T13:37:27;2.50;99.90
15257;DHT22;7731;50.720;6.912;2024-01-15T13:39:59;2.70;99.90
15257;DHT22;7731;50.720;6.912;2024-01-15T13:42:30;2.60;99.90
15257;DHT22;7731;50.720;6.912;2024-01-15T13:45:01;2.60;99.90
15257;DHT22;7731;50.720;6.912;2024-01-15T13:47:32;2.50;99.90
15257;DHT22;7731;50.720;6.912;2024-01-15T13:50:06;2.60;99.90
15257;DHT22;7731;50.720;6.912;2024-01-15T13:52:37;2.70;99.90
15257;DHT22;7731;50.720;6.912;2024-01-15T13:55:10;2.90;99.90
15257;DHT22;7731;50.720;6.912;2024-01-15T13:57:41;3.00;99.90
15257;DHT22;7731;50.720;6.912;2024-01-15T14:00:13;2.90;99.90
15257;DHT22;7731;50.720;6.912;2024-01-15T14:02:47;2.70;99.90
15257;DHT22;7731;50.720;6.912;2024-01-15T14:05:17;2.80;99.90
15257;DHT22;7731;50.720;6.912;2024-01-15T14:07:48;2.80;99.90
15257;DHT22;7731;50.720;6.912;2024-01-15T14:10:21;2.60;99.90
15257;DHT22;7731;50.720;6.912;2024-01-15T14:12:51;2.60;99.90
15257;DHT22;7731;50.720;6.912;2024-01-15T14:15:22;2.60;99.90
15257;DHT22;7731;50.720;6.912;2024-01-15T14:17:52;2.60;99.90
15257;DHT22;7731;50.720;6.912;2024-01-15T14:20:23;2.60;99.90
15257;DHT22;7731;50.720;6.912;2024-01-15T14:22:53;2.50;99.90
15257;DHT22;7731;50.720;6.912;2024-01-15T14:25:32;2.30;99.90
15257;DHT22;7731;50.720;6.912;2024-01-15T14:28:02;2.20;99.90
15257;DHT22;7731;50.720;6.912;2024-01-15T14:30:37;2.10;99.90
15257;DHT22;7731;50.720;6.912;2024-01-15T14:33:07;2.30;99.90
15257;DHT22;7731;50.720;6.912;2024-01-15T14:35:38;2.10;99.90
15257;DHT22;7731;50.720;6.912;2024-01-15T14:38:11;2.00;99.90
15257;DHT22;7731;50.720;6.912;2024-01-15T14:40:44;2.00;99.90
15257;DHT22;7731;50.720;6.912;2024-01-15T14:43:16;2.20;99.90
15257;DHT22;7731;50.720;6.912;2024-01-15T14:45:47;2.00;99.90
15257;DHT22;7731;50.720;6.912;2024-01-15T14:48:19;2.10;99.90
15257;DHT22;7731;50.720;6.912;2024-01-15T14:50:50;2.20;99.90
15257;DHT22;7731;50.720;6.912;2024-01-15T14:53:20;2.20;99.90
15257;DHT22;7731;50.720;6.912;2024-01-15T14:55:59;2.20;99.90
15257;DHT22;7731;50.720;6.912;2024-01-15T14:58:32;2.10;99.90
15257;DHT22;7731;50.720;6.912;2024-01-15T15:01:05;2.00;99.90
15257;DHT22;7731;50.720;6.912;2024-01-15T15:03:37;1.90;99.90
15257;DHT22;7731;50.720;6.912;2024-01-15T15:06:07;1.90;99.90
15257;DHT22;7731;50.720;6.912;2024-01-15T15:08:39;1.90;99.90
15257;DHT22;7731;50.720;6.912;2024-01-15T15:11:12;1.80;99.90
15257;DHT22;7731;50.720;6.912;2024-01-15T15:13:43;1.70;99.90
15257;DHT22;7731;50.720;6.912;2024-01-15T15:16:13;1.80;99.90
15257;DHT22;7731;50.720;6.912;2024-01-15T15:18:46;2.00;99.90
15257;DHT22;7731;50.720;6.912;2024-01-15T15:21:19;2.00;99.90
15257;DHT22;7731;50.720;6.912;2024-01-15T15:23:50;1.90;99.90
15257;DHT22;7731;50.720;6.912;2024-01-15T15:26:23;1.70;99.90
15257;DHT22;7731;50.720;6.912;2024-01-15T15:28:53;1.60;99.90
15257;DHT22;7731;50.720;6.912;2024-01-15T15:31:26;1.50;99.90
15257;DHT22;7731;50.720;6.912;2024-01-15T15:33:59;1.50;99.90
15257;DHT22;7731;50.720;6.912;2024-01-15T15:36:36;1.30;99.90
15257;DHT22;7731;50.720;6.912;2024-01-15T15:39:16;1.40;99.90
15257;DHT22;7731;50.720;6.912;2024-01-15T15:41:49;1.60;99.90
15257;DHT22;7731;50.720;6.912;2024-01-15T15:44:19;1.50;99.90
15257;DHT22;7731;50.720;6.912;2024-01-15T15:46:52;1.50;99.90
15257;DHT22;7731;50.720;6.912;2024-01-15T15:49:25;1.30;99.90
15257;DHT22;7731;50.720;6.912;2024-01-15T15:51:58;1.30;99.90
15257;DHT22;7731;50.720;6.912;2024-01-15T15:54:30;1.30;99.90
15257;DHT22;7731;50.720;6.912;2024-01-15T15:57:05;1.40;99.90
15257;DHT22;7731;50.720;6.912;2024-01-15T15:59:35;1.30;99.90
15257;DHT22;7731;50.720;6.912;2024-01-15T16:02:08;1.30;99.90
15257;DHT22;7731;50.720;6.912;2024-01-15T16:04:45;1.30;99.90
15257;DHT22;7731;50.720;6.912;2024-01-15T16:07:15;1.40;99.90
15257;DHT22;7731;50.720;6.912;2024-01-15T16:09:47;1.30;99.90
15257;DHT22;7731;50.720;6.912;2024-01-15T16:12:19;1.30;99.90
15257;DHT22;7731;50.720;6.912;2024-01-15T16:14:50;1.30;99.90
15257;DHT22;7731;50.720;6.912;2024-01-15T16:17:35;1.30;99.90
15257;DHT22;7731;50.720;6.912;2024-01-15T16:20:34;1.30;99.90
15257;DHT22;7731;50.720;6.912;2024-01-15T16:23:24;1.30;99.90
15257;DHT22;7731;50.720;6.912;2024-01-15T16:26:15;1.30;99.90
15257;DHT22;7731;50.720;6.912;2024-01-15T16:28:59;1.30;99.90
15257;DHT22;7731;50.720;6.912;2024-01-15T16:31:30;1.20;99.90
15257;DHT22;7731;50.720;6.912;2024-01-15T16:34:01;1.20;99.90
15257;DHT22;7731;50.720;6.912;2024-01-15T16:36:32;1.20;99.90
15257;DHT22;7731;50.720;6.912;2024-01-15T16:39:03;1.20;99.90
15257;DHT22;7731;50.720;6.912;2024-01-15T16:41:33;1.20;99.90
15257;DHT22;7731;50.720;6.912;2024-01-15T16:44:06;1.10;99.90
15257;DHT22;7731;50.720;6.912;2024-01-15T16:46:37;1.20;99.90
15257;DHT22;7731;50.720;6.912;2024-01-15T16:49:07;1.20;99.90
15257;DHT22;7731;50.720;6.912;2024-01-15T16:51:38;1.20;99.90
15257;DHT22;7731;50.720;6.912;2024-01-15T16:54:09;1.20;99.90
15257;DHT22;7731;50.720;6.912;2024-01-15T16:56:39;1.20;99.90
15257;DHT22;7731;50.720;6.912;2024-01-15T16:59:15;1.20;99.90
15257;DHT22;7731;50.720;6.912;2024-01-15T17:01:45;1.10;99.90
15257;DHT22;7731;50.720;6.912;2024-01-15T17:04:18;1.20;99.90
15257;DHT22;7731;50.720;6.912;2024-01-15T17:06:54;1.20;99.90